sensor_id;sensor_type;location;lat;lon;timestamp;pressure;altitude;pressure_sealevel;temperature;humidity
14089;BME280;7120;52.890;6.040;2023-03-18T00:00:36;100642.31;;;12.56;80.64
14089;BME280;7120;52.890;6.040;2023-03-18T00:03:03;100645.88;;;12.56;80.86
14089;BME280;7120;52.890;6.040;2023-03-18T00:05:28;100647.97;;;12.59;80.37
14089;BME280;7120;52.890;6.040;2023-03-18T00:07:55;100650.09;;;12.71;80.65
14089;BME280;7120;52.890;6.040;2023-03-18T00:10:20;100633.44;;;12.59;80.51
14089;BME280;7120;52.890;6.040;2023-03-18T00:12:46;100649.41;;;12.48;81.47
14089;BME280;7120;52.890;6.040;2023-03-18T00:15:13;100655.81;;;12.35;81.85
14089;BME280;7120;52.890;6.040;2023-03-18T00:17:40;100653.53;;;12.28;82.93
14089;BME280;7120;52.890;6.040;2023-03-18T00:20:07;100654.34;;;12.29;82.14
14089;BME280;7120;52.890;6.040;2023-03-18T00:22:34;100660.06;;;12.01;83.87
14089;BME280;7120;52.890;6.040;2023-03-18T00:25:00;100658.47;;;12.09;83.29
14089;BME280;7120;52.890;6.040;2023-03-18T00:27:26;100663.00;;;12.14;82.99
14089;BME280;7120;52.890;6.040;2023-03-18T00:29:52;100662.69;;;12.15;83.34
14089;BME280;7120;52.890;6.040;2023-03-18T00:32:18;100663.94;;;11.78;84.29
14089;BME280;7120;52.890;6.040;2023-03-18T00:34:43;100670.78;;;11.89;84.96
14089;BME280;7120;52.890;6.040;2023-03-18T00:37:09;100670.34;;;11.96;84.38
14089;BME280;7120;52.890;6.040;2023-03-18T00:39:43;100675.69;;;12.01;84.27
14089;BME280;7120;52.890;6.040;2023-03-18T00:42:10;100677.25;;;11.93;84.32
14089;BME280;7120;52.890;6.040;2023-03-18T00:44:36;100689.75;;;12.08;84.39
14089;BME280;7120;52.890;6.040;2023-03-18T00:47:03;100678.59;;;12.04;84.04
14089;BME280;7120;52.890;6.040;2023-03-18T00:49:28;100681.44;;;11.91;85.00
14089;BME280;7120;52.890;6.040;2023-03-18T00:51:54;100674.44;;;12.07;84.69
14089;BME280;7120;52.890;6.040;2023-03-18T00:54:19;100672.13;;;12.00;85.27
14089;BME280;7120;52.890;6.040;2023-03-18T00:56:46;100665.50;;;11.93;85.43
14089;BME280;7120;52.890;6.040;2023-03-18T00:59:12;100672.81;;;12.06;85.07
14089;BME280;7120;52.890;6.040;2023-03-18T01:01:38;100662.13;;;11.96;85.29
14089;BME280;7120;52.890;6.040;2023-03-18T01:04:04;100672.09;;;11.92;85.74
14089;BME280;7120;52.890;6.040;2023-03-18T01:06:32;100674.03;;;11.91;86.19
14089;BME280;7120;52.890;6.040;2023-03-18T01:08:58;100662.63;;;11.75;86.27
14089;BME280;7120;52.890;6.040;2023-03-18T01:11:27;100683.38;;;11.68;87.23
14089;BME280;7120;52.890;6.040;2023-03-18T01:13:53;100678.91;;;11.72;87.48
14089;BME280;7120;52.890;6.040;2023-03-18T01:16:19;100681.72;;;11.58;89.05
14089;BME280;7120;52.890;6.040;2023-03-18T01:18:45;100680.09;;;11.57;89.81
14089;BME280;7120;52.890;6.040;2023-03-18T01:21:12;100682.47;;;11.50;89.36
14089;BME280;7120;52.890;6.040;2023-03-18T01:23:37;100688.00;;;11.36;90.70
14089;BME280;7120;52.890;6.040;2023-03-18T01:26:03;100683.81;;;11.39;90.82
14089;BME280;7120;52.890;6.040;2023-03-18T01:28:29;100687.44;;;11.48;90.08
14089;BME280;7120;52.890;6.040;2023-03-18T01:30:55;100689.34;;;11.47;90.34
14089;BME280;7120;52.890;6.040;2023-03-18T01:33:23;100688.00;;;11.14;91.79
14089;BME280;7120;52.890;6.040;2023-03-18T01:35:54;100693.38;;;11.27;91.67
14089;BME280;7120;52.890;6.040;2023-03-18T01:38:20;100690.59;;;11.19;91.61
14089;BME280;7120;52.890;6.040;2023-03-18T01:40:46;100686.56;;;11.16;92.40
14089;BME280;7120;52.890;6.040;2023-03-18T01:43:21;100686.28;;;11.04;93.38
14089;BME280;7120;52.890;6.040;2023-03-18T01:45:53;100683.75;;;11.08;93.35
14089;BME280;7120;52.890;6.040;2023-03-18T01:48:22;100678.28;;;11.08;92.77
14089;BME280;7120;52.890;6.040;2023-03-18T01:50:54;100687.06;;;10.82;94.22
14089;BME280;7120;52.890;6.040;2023-03-18T01:53:25;100701.25;;;10.70;95.41
14089;BME280;7120;52.890;6.040;2023-03-18T01:55:52;100698.00;;;10.82;94.93
14089;BME280;7120;52.890;6.040;2023-03-18T01:58:23;100696.91;;;10.69;95.34
14089;BME280;7120;52.890;6.040;2023-03-18T02:00:59;100698.34;;;10.53;96.15
14089;BME280;7120;52.890;6.040;2023-03-18T02:03:27;100700.25;;;10.66;96.10
14089;BME280;7120;52.890;6.040;2023-03-18T02:05:53;100697.13;;;10.59;96.55
14089;BME280;7120;52.890;6.040;2023-03-18T02:08:19;100694.16;;;10.69;95.96
14089;BME280;7120;52.890;6.040;2023-03-18T02:10:45;100696.91;;;10.69;96.00
14089;BME280;7120;52.890;6.040;2023-03-18T02:13:12;100690.03;;;10.58;96.58
14089;BME280;7120;52.890;6.040;2023-03-18T02:15:48;100699.38;;;10.43;96.93
14089;BME280;7120;52.890;6.040;2023-03-18T02:18:21;100689.72;;;10.60;96.88
14089;BME280;7120;52.890;6.040;2023-03-18T02:20:51;100699.38;;;10.57;96.25
14089;BME280;7120;52.890;6.040;2023-03-18T02:28:44;100700.06;;;10.35;95.39
14089;BME280;7120;52.890;6.040;2023-03-18T02:31:13;100697.84;;;10.37;95.42
14089;BME280;7120;52.890;6.040;2023-03-18T02:33:40;100692.56;;;10.41;94.85
14089;BME280;7120;52.890;6.040;2023-03-18T02:36:11;100695.84;;;10.43;96.69
14089;BME280;7120;52.890;6.040;2023-03-18T02:38:42;100695.13;;;10.37;96.40
14089;BME280;7120;52.890;6.040;2023-03-18T02:41:14;100701.44;;;10.19;97.24
14089;BME280;7120;52.890;6.040;2023-03-18T02:43:39;100708.09;;;9.99;99.41
14089;BME280;7120;52.890;6.040;2023-03-18T02:48:43;100707.25;;;10.31;98.43
14089;BME280;7120;52.890;6.040;2023-03-18T02:51:11;100707.97;;;10.23;98.66
14089;BME280;7120;52.890;6.040;2023-03-18T02:53:37;100704.03;;;10.29;99.00
14089;BME280;7120;52.890;6.040;2023-03-18T02:56:04;100713.22;;;10.33;98.20
14089;BME280;7120;52.890;6.040;2023-03-18T02:58:30;100712.03;;;9.93;99.90
14089;BME280;7120;52.890;6.040;2023-03-18T03:00:55;100722.69;;;9.95;100.00
14089;BME280;7120;52.890;6.040;2023-03-18T03:03:22;100715.72;;;10.16;100.00
14089;BME280;7120;52.890;6.040;2023-03-18T03:05:48;100718.28;;;10.26;99.83
14089;BME280;7120;52.890;6.040;2023-03-18T03:08:13;100717.84;;;10.19;100.00
14089;BME280;7120;52.890;6.040;2023-03-18T03:10:40;100714.00;;;10.20;99.50
14089;BME280;7120;52.890;6.040;2023-03-18T03:13:06;100722.88;;;10.44;98.77
14089;BME280;7120;52.890;6.040;2023-03-18T03:15:34;100728.09;;;10.27;99.06
14089;BME280;7120;52.890;6.040;2023-03-18T03:18:00;100729.69;;;10.14;100.00
14089;BME280;7120;52.890;6.040;2023-03-18T03:20:25;100740.78;;;10.23;100.00
14089;BME280;7120;52.890;6.040;2023-03-18T03:22:51;100748.19;;;10.36;100.00
14089;BME280;7120;52.890;6.040;2023-03-18T03:25:17;100751.69;;;10.23;99.80
14089;BME280;7120;52.890;6.040;2023-03-18T03:27:43;100749.31;;;10.03;100.00
14089;BME280;7120;52.890;6.040;2023-03-18T03:30:10;100754.63;;;10.27;100.00
14089;BME280;7120;52.890;6.040;2023-03-18T03:32:36;100746.34;;;10.32;99.85
14089;BME280;7120;52.890;6.040;2023-03-18T03:35:01;100752.53;;;10.37;99.63
14089;BME280;7120;52.890;6.040;2023-03-18T03:37:29;100755.97;;;10.29;100.00
14089;BME280;7120;52.890;6.040;2023-03-18T03:39:54;100757.69;;;10.39;99.80
14089;BME280;7120;52.890;6.040;2023-03-18T03:42:19;100752.81;;;10.50;99.25
14089;BME280;7120;52.890;6.040;2023-03-18T03:44:45;100765.59;;;10.54;99.26
14089;BME280;7120;52.890;6.040;2023-03-18T03:47:11;100762.44;;;10.47;100.00
14089;BME280;7120;52.890;6.040;2023-03-18T03:49:37;100766.59;;;10.44;99.66
14089;BME280;7120;52.890;6.040;2023-03-18T03:52:03;100762.25;;;10.43;99.62
14089;BME280;7120;52.890;6.040;2023-03-18T03:54:28;100761.53;;;10.38;100.00
14089;BME280;7120;52.890;6.040;2023-03-18T03:56:54;100763.34;;;10.56;99.13
14089;BME280;7120;52.890;6.040;2023-03-18T03:59:20;100770.56;;;10.52;99.60
14089;BME280;7120;52.890;6.040;2023-03-18T04:01:45;100765.00;;;10.43;100.00
14089;BME280;7120;52.890;6.040;2023-03-18T04:04:11;100776.03;;;10.52;100.00
14089;BME280;7120;52.890;6.040;2023-03-18T04:06:37;100770.66;;;10.61;99.88
14089;BME280;7120;52.890;6.040;2023-03-18T04:09:03;100772.28;;;10.62;98.72
14089;BME280;7120;52.890;6.040;2023-03-18T04:11:29;100773.28;;;10.52;100.00
14089;BME280;7120;52.890;6.040;2023-03-18T04:13:55;100778.84;;;10.75;99.80
14089;BME280;7120;52.890;6.040;2023-03-18T04:16:20;100782.00;;;10.68;98.61
14089;BME280;7120;52.890;6.040;2023-03-18T04:18:46;100775.00;;;10.76;98.76
14089;BME280;7120;52.890;6.040;2023-03-18T04:21:12;100772.25;;;10.89;98.93
14089;BME280;7120;52.890;6.040;2023-03-18T04:23:37;100786.84;;;10.98;97.28
14089;BME280;7120;52.890;6.040;2023-03-18T04:26:02;100780.16;;;10.77;97.70
14089;BME280;7120;52.890;6.040;2023-03-18T04:28:30;100779.56;;;10.66;99.17
14089;BME280;7120;52.890;6.040;2023-03-18T04:30:56;100780.88;;;10.55;99.23
14089;BME280;7120;52.890;6.040;2023-03-18T04:33:21;100789.09;;;10.83;98.30
14089;BME280;7120;52.890;6.040;2023-03-18T04:35:46;100789.50;;;10.62;99.18
14089;BME280;7120;52.890;6.040;2023-03-18T04:38:13;100792.31;;;10.85;97.80
14089;BME280;7120;52.890;6.040;2023-03-18T04:40:38;100791.59;;;10.38;100.00
14089;BME280;7120;52.890;6.040;2023-03-18T04:43:03;100804.38;;;10.56;100.00
14089;BME280;7120;52.890;6.040;2023-03-18T04:45:29;100798.69;;;10.39;100.00
14089;BME280;7120;52.890;6.040;2023-03-18T04:47:54;100801.44;;;10.53;100.00
14089;BME280;7120;52.890;6.040;2023-03-18T04:50:20;100792.59;;;10.42;100.00
14089;BME280;7120;52.890;6.040;2023-03-18T04:52:45;100786.34;;;10.55;100.00
14089;BME280;7120;52.890;6.040;2023-03-18T04:55:12;100787.28;;;10.64;98.36
14089;BME280;7120;52.890;6.040;2023-03-18T04:57:44;100800.53;;;10.71;97.58
14089;BME280;7120;52.890;6.040;2023-03-18T05:00:14;100805.00;;;10.67;97.34
14089;BME280;7120;52.890;6.040;2023-03-18T05:02:41;100795.97;;;10.53;98.84
14089;BME280;7120;52.890;6.040;2023-03-18T05:05:07;100800.56;;;10.57;99.47
14089;BME280;7120;52.890;6.040;2023-03-18T05:07:33;100798.72;;;10.66;98.11
14089;BME280;7120;52.890;6.040;2023-03-18T05:09:58;100796.47;;;10.41;99.63
14089;BME280;7120;52.890;6.040;2023-03-18T05:12:24;100806.09;;;10.52;99.15
14089;BME280;7120;52.890;6.040;2023-03-18T05:14:50;100797.19;;;10.47;98.21
14089;BME280;7120;52.890;6.040;2023-03-18T05:17:16;100798.50;;;10.63;98.88
14089;BME280;7120;52.890;6.040;2023-03-18T05:19:43;100810.47;;;10.67;97.64
14089;BME280;7120;52.890;6.040;2023-03-18T05:22:10;100807.13;;;10.70;97.22
14089;BME280;7120;52.890;6.040;2023-03-18T05:24:36;100813.81;;;10.50;99.80
14089;BME280;7120;52.890;6.040;2023-03-18T05:27:02;100808.03;;;10.65;99.09
14089;BME280;7120;52.890;6.040;2023-03-18T05:29:27;100814.72;;;10.59;99.38
14089;BME280;7120;52.890;6.040;2023-03-18T05:31:53;100812.28;;;10.58;100.00
14089;BME280;7120;52.890;6.040;2023-03-18T05:34:18;100819.88;;;10.75;99.17
14089;BME280;7120;52.890;6.040;2023-03-18T05:36:43;100817.16;;;10.75;99.14
14089;BME280;7120;52.890;6.040;2023-03-18T05:39:09;100825.66;;;10.73;98.83
14089;BME280;7120;52.890;6.040;2023-03-18T05:41:34;100818.59;;;10.86;98.60
14089;BME280;7120;52.890;6.040;2023-03-18T05:44:00;100820.00;;;10.83;98.02
14089;BME280;7120;52.890;6.040;2023-03-18T05:46:25;100824.06;;;10.86;98.70
14089;BME280;7120;52.890;6.040;2023-03-18T05:48:51;100821.59;;;10.98;97.92
14089;BME280;7120;52.890;6.040;2023-03-18T05:51:16;100828.00;;;10.80;98.93
14089;BME280;7120;52.890;6.040;2023-03-18T05:53:42;100827.78;;;11.04;98.73
14089;BME280;7120;52.890;6.040;2023-03-18T05:56:07;100824.06;;;10.99;98.91
14089;BME280;7120;52.890;6.040;2023-03-18T05:58:34;100825.06;;;10.76;98.80
14089;BME280;7120;52.890;6.040;2023-03-18T06:00:59;100831.13;;;10.73;99.83
14089;BME280;7120;52.890;6.040;2023-03-18T06:03:25;100835.91;;;10.67;98.88
14089;BME280;7120;52.890;6.040;2023-03-18T06:05:51;100826.56;;;10.68;98.85
14089;BME280;7120;52.890;6.040;2023-03-18T06:08:18;100846.34;;;10.65;99.09
14089;BME280;7120;52.890;6.040;2023-03-18T06:10:43;100844.00;;;10.72;99.77
14089;BME280;7120;52.890;6.040;2023-03-18T06:13:09;100854.84;;;10.78;99.62
14089;BME280;7120;52.890;6.040;2023-03-18T06:15:35;100841.84;;;10.56;100.00
14089;BME280;7120;52.890;6.040;2023-03-18T06:18:01;100847.44;;;10.78;100.00
14089;BME280;7120;52.890;6.040;2023-03-18T06:20:26;100851.09;;;10.87;99.73
14089;BME280;7120;52.890;6.040;2023-03-18T06:22:52;100846.84;;;10.95;99.86
14089;BME280;7120;52.890;6.040;2023-03-18T06:25:19;100849.59;;;10.95;99.15
14089;BME280;7120;52.890;6.040;2023-03-18T06:27:44;100862.56;;;11.03;99.17
14089;BME280;7120;52.890;6.040;2023-03-18T06:30:13;100861.94;;;11.06;98.36
14089;BME280;7120;52.890;6.040;2023-03-18T06:32:39;100863.97;;;10.87;98.88
14089;BME280;7120;52.890;6.040;2023-03-18T06:35:05;100868.25;;;10.93;99.67
14089;BME280;7120;52.890;6.040;2023-03-18T06:37:31;100877.44;;;11.11;99.36
14089;BME280;7120;52.890;6.040;2023-03-18T06:39:56;100877.84;;;11.18;99.82
14089;BME280;7120;52.890;6.040;2023-03-18T06:42:22;100872.28;;;11.09;99.17
14089;BME280;7120;52.890;6.040;2023-03-18T06:44:47;100881.13;;;10.92;99.52
14089;BME280;7120;52.890;6.040;2023-03-18T06:47:19;100884.66;;;10.79;99.52
14089;BME280;7120;52.890;6.040;2023-03-18T06:49:46;100887.00;;;10.99;100.00
14089;BME280;7120;52.890;6.040;2023-03-18T06:52:12;100885.16;;;11.09;99.19
14089;BME280;7120;52.890;6.040;2023-03-18T06:54:38;100893.16;;;11.19;99.18
14089;BME280;7120;52.890;6.040;2023-03-18T06:57:04;100895.81;;;11.24;98.13
14089;BME280;7120;52.890;6.040;2023-03-18T06:59:30;100900.47;;;11.23;99.36
14089;BME280;7120;52.890;6.040;2023-03-18T07:01:56;100901.34;;;10.91;100.00
14089;BME280;7120;52.890;6.040;2023-03-18T07:04:22;100893.53;;;10.85;100.00
14089;BME280;7120;52.890;6.040;2023-03-18T07:06:48;100893.88;;;11.11;99.74
14089;BME280;7120;52.890;6.040;2023-03-18T07:09:14;100903.59;;;10.89;98.64
14089;BME280;7120;52.890;6.040;2023-03-18T07:11:41;100901.91;;;11.07;99.11
14089;BME280;7120;52.890;6.040;2023-03-18T07:14:08;100911.31;;;11.28;97.89
14089;BME280;7120;52.890;6.040;2023-03-18T07:16:33;100904.50;;;10.98;100.00
14089;BME280;7120;52.890;6.040;2023-03-18T07:18:58;100891.13;;;10.97;98.69
14089;BME280;7120;52.890;6.040;2023-03-18T07:21:25;100916.59;;;11.25;99.36
14089;BME280;7120;52.890;6.040;2023-03-18T07:23:50;100902.38;;;11.50;98.23
14089;BME280;7120;52.890;6.040;2023-03-18T07:26:16;100915.28;;;11.36;99.08
14089;BME280;7120;52.890;6.040;2023-03-18T07:28:42;100918.59;;;11.19;100.00
14089;BME280;7120;52.890;6.040;2023-03-18T07:31:07;100917.19;;;11.36;100.00
14089;BME280;7120;52.890;6.040;2023-03-18T07:33:33;100924.69;;;11.44;100.00
14089;BME280;7120;52.890;6.040;2023-03-18T07:35:58;100923.09;;;11.15;100.00
14089;BME280;7120;52.890;6.040;2023-03-18T07:38:24;100920.34;;;11.15;100.00
14089;BME280;7120;52.890;6.040;2023-03-18T07:40:49;100930.66;;;11.18;100.00
14089;BME280;7120;52.890;6.040;2023-03-18T07:43:15;100928.97;;;11.22;100.00
14089;BME280;7120;52.890;6.040;2023-03-18T07:45:42;100936.06;;;11.37;100.00
14089;BME280;7120;52.890;6.040;2023-03-18T07:48:07;100937.56;;;11.02;100.00
14089;BME280;7120;52.890;6.040;2023-03-18T07:50:32;100939.91;;;11.36;100.00
14089;BME280;7120;52.890;6.040;2023-03-18T07:52:58;100942.13;;;11.48;100.00
14089;BME280;7120;52.890;6.040;2023-03-18T07:55:24;100944.75;;;11.25;100.00
14089;BME280;7120;52.890;6.040;2023-03-18T07:57:49;100950.34;;;11.07;100.00
14089;BME280;7120;52.890;6.040;2023-03-18T08:00:16;100948.63;;;11.11;100.00
14089;BME280;7120;52.890;6.040;2023-03-18T08:02:41;100949.94;;;11.27;100.00
14089;BME280;7120;52.890;6.040;2023-03-18T08:05:07;100957.34;;;11.26;100.00
14089;BME280;7120;52.890;6.040;2023-03-18T08:07:34;100955.41;;;11.27;100.00
14089;BME280;7120;52.890;6.040;2023-03-18T08:10:00;100964.22;;;11.10;100.00
14089;BME280;7120;52.890;6.040;2023-03-18T08:12:26;100972.34;;;11.15;100.00
14089;BME280;7120;52.890;6.040;2023-03-18T08:14:51;100974.34;;;10.96;100.00
14089;BME280;7120;52.890;6.040;2023-03-18T08:17:17;100966.66;;;11.25;100.00
14089;BME280;7120;52.890;6.040;2023-03-18T08:19:42;100961.81;;;11.09;100.00
14089;BME280;7120;52.890;6.040;2023-03-18T08:22:08;100963.53;;;11.46;100.00
14089;BME280;7120;52.890;6.040;2023-03-18T08:24:34;100956.13;;;11.33;100.00
14089;BME280;7120;52.890;6.040;2023-03-18T08:27:01;100976.00;;;11.79;100.00
14089;BME280;7120;52.890;6.040;2023-03-18T08:29:27;100953.13;;;11.98;100.00
14089;BME280;7120;52.890;6.040;2023-03-18T08:31:52;100957.06;;;12.19;100.00
14089;BME280;7120;52.890;6.040;2023-03-18T08:34:19;100954.44;;;12.59;100.00
14089;BME280;7120;52.890;6.040;2023-03-18T08:36:44;100967.25;;;12.72;100.00
14089;BME280;7120;52.890;6.040;2023-03-18T08:39:10;100964.00;;;12.25;100.00
14089;BME280;7120;52.890;6.040;2023-03-18T08:41:35;100961.91;;;12.45;100.00
14089;BME280;7120;52.890;6.040;2023-03-18T08:44:04;100965.28;;;12.42;100.00
14089;BME280;7120;52.890;6.040;2023-03-18T08:46:32;100961.78;;;13.26;100.00
14089;BME280;7120;52.890;6.040;2023-03-18T08:48:57;100961.34;;;12.79;98.81
14089;BME280;7120;52.890;6.040;2023-03-18T08:51:24;100970.97;;;13.87;100.00
14089;BME280;7120;52.890;6.040;2023-03-18T08:53:49;100970.25;;;14.47;94.95
14089;BME280;7120;52.890;6.040;2023-03-18T08:56:15;100964.53;;;14.09;93.21
14089;BME280;7120;52.890;6.040;2023-03-18T08:58:41;100969.41;;;14.38;91.84
14089;BME280;7120;52.890;6.040;2023-03-18T09:01:09;100973.44;;;14.23;93.45
14089;BME280;7120;52.890;6.040;2023-03-18T09:03:34;100974.75;;;14.25;89.46
14089;BME280;7120;52.890;6.040;2023-03-18T09:06:00;100992.38;;;14.76;91.01
14089;BME280;7120;52.890;6.040;2023-03-18T09:08:25;100985.13;;;15.27;89.18
14089;BME280;7120;52.890;6.040;2023-03-18T09:10:54;100983.09;;;15.45;87.03
14089;BME280;7120;52.890;6.040;2023-03-18T09:13:21;100980.97;;;16.10;85.34
14089;BME280;7120;52.890;6.040;2023-03-18T09:15:46;100976.47;;;17.38;78.99
14089;BME280;7120;52.890;6.040;2023-03-18T09:18:12;100969.44;;;17.40;76.18
14089;BME280;7120;52.890;6.040;2023-03-18T09:20:39;100982.44;;;16.07;80.38
14089;BME280;7120;52.890;6.040;2023-03-18T09:23:05;100987.09;;;15.65;82.81
14089;BME280;7120;52.890;6.040;2023-03-18T09:25:31;100992.91;;;15.72;83.53
14089;BME280;7120;52.890;6.040;2023-03-18T09:27:56;100985.69;;;15.03;85.00
14089;BME280;7120;52.890;6.040;2023-03-18T09:30:22;100993.44;;;15.10;86.43
14089;BME280;7120;52.890;6.040;2023-03-18T09:32:47;100987.38;;;14.87;86.13
14089;BME280;7120;52.890;6.040;2023-03-18T09:35:13;101002.66;;;15.14;85.66
14089;BME280;7120;52.890;6.040;2023-03-18T09:37:39;100997.66;;;15.54;83.37
14089;BME280;7120;52.890;6.040;2023-03-18T09:40:05;100991.72;;;15.35;84.21
14089;BME280;7120;52.890;6.040;2023-03-18T09:48:43;100990.75;;;15.99;77.23
14089;BME280;7120;52.890;6.040;2023-03-18T09:53:59;100992.63;;;18.37;74.18
14089;BME280;7120;52.890;6.040;2023-03-18T09:56:29;100996.88;;;17.70;69.49
14089;BME280;7120;52.890;6.040;2023-03-18T10:01:45;100998.88;;;19.34;63.41
14089;BME280;7120;52.890;6.040;2023-03-18T10:04:21;101000.97;;;19.09;65.18
14089;BME280;7120;52.890;6.040;2023-03-18T10:06:51;100997.81;;;18.94;69.02
14089;BME280;7120;52.890;6.040;2023-03-18T10:12:00;100998.91;;;18.22;69.65
14089;BME280;7120;52.890;6.040;2023-03-18T10:14:40;100999.28;;;20.53;61.06
14089;BME280;7120;52.890;6.040;2023-03-18T10:26:11;101007.63;;;19.36;63.87
14089;BME280;7120;52.890;6.040;2023-03-18T10:33:49;101020.13;;;20.63;62.92
14089;BME280;7120;52.890;6.040;2023-03-18T10:36:24;101014.81;;;22.41;58.55
14089;BME280;7120;52.890;6.040;2023-03-18T10:38:53;101012.00;;;19.84;56.91
14089;BME280;7120;52.890;6.040;2023-03-18T10:41:33;101022.53;;;20.45;61.57
14089;BME280;7120;52.890;6.040;2023-03-18T10:44:30;101025.75;;;20.86;57.71
14089;BME280;7120;52.890;6.040;2023-03-18T10:47:00;101028.53;;;20.67;58.39
14089;BME280;7120;52.890;6.040;2023-03-18T10:53:18;101033.25;;;20.85;58.09
14089;BME280;7120;52.890;6.040;2023-03-18T10:55:28;101013.72;;;21.93;54.85
14089;BME280;7120;52.890;6.040;2023-03-18T10:57:55;101031.91;;;21.18;56.13
14089;BME280;7120;52.890;6.040;2023-03-18T11:00:29;101031.84;;;21.83;54.14
14089;BME280;7120;52.890;6.040;2023-03-18T11:02:58;101027.50;;;20.55;57.17
14089;BME280;7120;52.890;6.040;2023-03-18T11:05:32;101027.13;;;19.55;57.76
14089;BME280;7120;52.890;6.040;2023-03-18T11:08:07;101030.97;;;18.75;59.50
14089;BME280;7120;52.890;6.040;2023-03-18T11:10:38;101033.66;;;19.94;61.00
14089;BME280;7120;52.890;6.040;2023-03-18T11:13:15;101031.63;;;20.26;57.24
14089;BME280;7120;52.890;6.040;2023-03-18T11:15:47;101032.81;;;21.45;54.42
14089;BME280;7120;52.890;6.040;2023-03-18T11:18:20;101016.50;;;21.01;53.55
14089;BME280;7120;52.890;6.040;2023-03-18T11:20:53;101015.00;;;19.60;56.86
14089;BME280;7120;52.890;6.040;2023-03-18T11:23:36;101014.34;;;18.75;58.88
14089;BME280;7120;52.890;6.040;2023-03-18T11:26:24;101016.94;;;19.28;61.00
14089;BME280;7120;52.890;6.040;2023-03-18T11:29:04;101024.03;;;21.01;55.59
14089;BME280;7120;52.890;6.040;2023-03-18T11:31:29;101013.06;;;22.30;56.11
14089;BME280;7120;52.890;6.040;2023-03-18T11:33:58;101010.53;;;21.68;50.45
14089;BME280;7120;52.890;6.040;2023-03-18T11:36:26;101013.81;;;22.00;48.94
14089;BME280;7120;52.890;6.040;2023-03-18T11:38:57;101014.25;;;21.53;50.32
14089;BME280;7120;52.890;6.040;2023-03-18T11:41:25;101012.72;;;20.71;55.80
14089;BME280;7120;52.890;6.040;2023-03-18T11:43:57;101008.09;;;21.21;53.94
14089;BME280;7120;52.890;6.040;2023-03-18T11:46:29;101007.22;;;21.85;51.02
14089;BME280;7120;52.890;6.040;2023-03-18T11:48:56;101008.13;;;22.19;50.34
14089;BME280;7120;52.890;6.040;2023-03-18T11:54:08;101015.63;;;20.78;51.56
14089;BME280;7120;52.890;6.040;2023-03-18T11:56:56;101018.75;;;21.61;51.80
14089;BME280;7120;52.890;6.040;2023-03-18T12:12:44;101006.47;;;19.84;53.35
14089;BME280;7120;52.890;6.040;2023-03-18T12:15:21;101014.78;;;19.21;57.08
14089;BME280;7120;52.890;6.040;2023-03-18T12:20:44;101011.06;;;20.12;53.34
14089;BME280;7120;52.890;6.040;2023-03-18T12:40:54;101006.97;;;18.67;55.67
14089;BME280;7120;52.890;6.040;2023-03-18T12:54:49;100997.25;;;20.35;52.72
14089;BME280;7120;52.890;6.040;2023-03-18T12:57:40;100999.66;;;21.59;50.86
14089;BME280;7120;52.890;6.040;2023-03-18T13:03:33;100987.06;;;18.49;55.19
14089;BME280;7120;52.890;6.040;2023-03-18T13:06:05;100991.25;;;19.46;57.14
14089;BME280;7120;52.890;6.040;2023-03-18T13:09:06;100996.97;;;19.06;56.33
14089;BME280;7120;52.890;6.040;2023-03-18T13:14:26;100995.47;;;18.81;58.03
14089;BME280;7120;52.890;6.040;2023-03-18T13:16:56;100998.13;;;18.49;57.81
14089;BME280;7120;52.890;6.040;2023-03-18T13:19:23;101000.53;;;19.07;59.89
14089;BME280;7120;52.890;6.040;2023-03-18T13:22:17;100995.50;;;18.41;57.99
14089;BME280;7120;52.890;6.040;2023-03-18T13:25:01;100995.56;;;18.56;58.89
14089;BME280;7120;52.890;6.040;2023-03-18T13:27:36;100993.41;;;18.50;60.15
14089;BME280;7120;52.890;6.040;2023-03-18T13:44:10;100972.94;;;18.26;58.17
14089;BME280;7120;52.890;6.040;2023-03-18T13:46:39;100983.69;;;18.84;58.07
14089;BME280;7120;52.890;6.040;2023-03-18T13:49:16;100973.41;;;18.84;56.70
14089;BME280;7120;52.890;6.040;2023-03-18T13:51:48;100977.03;;;18.73;57.22
14089;BME280;7120;52.890;6.040;2023-03-18T13:54:15;100984.41;;;18.00;59.37
14089;BME280;7120;52.890;6.040;2023-03-18T14:02:40;100979.69;;;18.01;60.87
14089;BME280;7120;52.890;6.040;2023-03-18T14:05:34;100968.06;;;17.58;59.39
14089;BME280;7120;52.890;6.040;2023-03-18T14:08:31;100973.59;;;18.35;60.65
14089;BME280;7120;52.890;6.040;2023-03-18T14:13:50;100965.84;;;18.41;60.21
14089;BME280;7120;52.890;6.040;2023-03-18T14:16:20;100976.72;;;17.69;60.84
14089;BME280;7120;52.890;6.040;2023-03-18T14:18:56;100973.81;;;17.53;62.35
14089;BME280;7120;52.890;6.040;2023-03-18T14:21:28;100964.16;;;17.72;62.89
14089;BME280;7120;52.890;6.040;2023-03-18T14:26:27;100963.22;;;17.80;62.67
14089;BME280;7120;52.890;6.040;2023-03-18T14:34:22;100965.78;;;17.48;64.47
14089;BME280;7120;52.890;6.040;2023-03-18T14:39:37;100966.44;;;17.82;63.18
14089;BME280;7120;52.890;6.040;2023-03-18T14:42:41;100962.53;;;17.46;63.54
14089;BME280;7120;52.890;6.040;2023-03-18T14:45:25;100963.09;;;17.52;64.89
14089;BME280;7120;52.890;6.040;2023-03-18T14:47:56;100951.59;;;17.38;66.11
14089;BME280;7120;52.890;6.040;2023-03-18T14:50:36;100962.06;;;17.20;66.36
14089;BME280;7120;52.890;6.040;2023-03-18T14:55:32;100961.94;;;17.16;67.25
14089;BME280;7120;52.890;6.040;2023-03-18T14:57:58;100970.81;;;16.77;69.49
14089;BME280;7120;52.890;6.040;2023-03-18T15:00:24;100963.00;;;16.79;69.05
14089;BME280;7120;52.890;6.040;2023-03-18T15:02:59;100954.97;;;16.98;70.97
14089;BME280;7120;52.890;6.040;2023-03-18T15:05:33;100960.19;;;16.66;71.83
14089;BME280;7120;52.890;6.040;2023-03-18T15:07:59;100960.41;;;16.94;71.75
14089;BME280;7120;52.890;6.040;2023-03-18T15:10:28;100952.13;;;16.94;73.44
14089;BME280;7120;52.890;6.040;2023-03-18T15:13:06;100950.19;;;17.07;73.93